Relevés horaires Jungfraujoch (Suisse)


Relevés horaires à Jungfraujoch - Samedi 10 Janv. 2004
Heure UTC1 Température [°C] Vent [km/h] Hum. [%] Pres.4 [hPa] Visi. [Km] Nébu. [octa] Préc.5 [mm] Cond.
2m. Res. Ros. Dir.2 Vit. Moy. Raf.3
23:00 -11.0 -22.4 -12.3 NO 42.6 -- -- 90 700 -- -- -- --
22:00 -11.4 -11.4 -12.8 NNO 0.0 -- -- 89 700 -- -- -- --
21:00 -12.0 -18.6 -14.4 ONO 13.0 63.0 87.0 82 700(1.6/3h) -- -- -- --
20:00 -11.3 -18.8 -12.7 ONO 16.7 -- -- 89 700 -- -- -- --
19:00 -13.4 -19 -15.0 ONO 9.3 -- -- 88 700 -- -- -- --
18:00 -14.8 -27 -16.5 ONO 38.9 63.0 87.0 87 700(1.4/3h) 0.1 -- -- Brouillard avec dépôt de givre, ciel pas visible
17:00 -14.8 -28.5 -16.5 ONO 51.9 -- -- 87 700 -- -- -- --
16:00 -15.5 -29.1 -17.3 ONO 48.2 -- -- 86 700 -- -- -- --
14:00 -15.9 -25.8 -17.7 ONO 22.2 -- -- 86 700 -- -- -- --
13:00 -16.1 -26.4 -18.0 ONO 24.1 -- -- 85 700 -- -- -- --
12:00 -14.3 -24.1 -16.0 NO 24.1 59.3 96.3 87 700(0.9/3h) 0 -- -- Légère neige intermittente
11:00 -13.8 -23.8 -15.4 NO 25.9 -- -- 88 700 -- -- -- --
10:00 -13.4 -24.9 -15.0 ONO 37.0 -- -- 88 700 -- -- -- --
09:00 -14.2 -25.8 -15.9 NO 35.2 59.3 96.3 87 700(2.3/3h) 0 -- -- Neige modérée intermittente
08:00 -14.3 -27 -16.0 ONO 44.4 -- -- 87 700 -- -- -- --
07:00 -12.2 -25.4 -13.7 ONO 57.4 -- -- 89 700 -- -- -- --
06:00 -15.0 -27.5 -16.8 ONO 40.7 50.0 92.6 86 700(0.3/3h) 0 -- -- Neige modérée intermittente
05:00 -14.2 -26 -15.9 ONO 37.0 -- -- 87 700 -- -- -- --
04:00 -13.9 -25.1 -15.5 ONO 33.3 -- -- 88 700 -- -- -- --
03:00 -14.9 -28.4 -16.6 ONO 50.0 85.2 135.2 87 700(-0.4/3h) -- -- -- --
02:00 -14.9 -27.6 -16.6 ONO 42.6 -- -- 87 700 -- -- -- --
01:00 -15.3 -27.9 -17.1 ONO 40.7 -- -- 86 700 -- -- -- --
00:00 -15.5 -28 -17.3 ONO 38.9 85.2 151.9 86 700(0.2/3h) -- -- -- --

1 Coordinated Universal Time. Actuellement il est 00:00 locale et 22:00 UTC.

2 Le vent souffle depuis la direction indiquée vers la direction oposée.

3 Les rafales max. sont disponible 40 min après l'heure du relevé.

4 Pour les stations d'altitude (plus de 600m) le géopotentiel du niveau le plus proche de la pression obligatoire est indiqué.

5 Les stations disposant d'un diffuseur peuvent indiquer "trace". Cela signifie que des précipitations ont touchés le sol mais que la quantité est inférieure à 0.1 mm.

Copyright

Les données affichées sur cette page sont la propriété exclusive de Météo Suisse.

Récapitulatif de la journée
Température [°C] Vent [km/h] Ensoleillement4 [h] Precipitations totale5 [mm] Pression [Hpa]
Min1 Max.2 Moy.3 Max. Min Max.
-16.1 -12.2 66.4 151.9 0 h 0 min 0 700.0 700.0

1 Température minimale relevée entre 18:00 UTC la veille et 18:00 UTC le jour donné.

2 Température maximale relevée entre 06:00 UTC le jour donné et 06:00 UTC le lendemain.

3 Vent moyen de la journée basé sur les relevés horaires.

4 Ensoleillement en heures relevé entre 06:00 UTC la veille et 06:00 UTC le jour donné.

5 Précipitations totales tombées entre 06:00 UTC la jour donné et 06:00 UTC le lendemain.

Graphiques horaires